Time;durP1;ratioP1;P1;durP2;ratioP2;P2;SDS_P1;SDS_P2;PMS_P1;PMS_P2;Temp;Humidity;BMP_temperature;BMP_pressure;BME280_temperature;BME280_humidity;BME280_pressure;Samples;Min_cycle;Max_cycle;Signal;HPM_P1;HPM_P2
2023/02/24 00:02:48;;;;;;;;;33.20;30.00;;;;;13.45;47.85;98142.53;6145626;28;96452;-58
2023/02/24 00:05:51;;;;;;;;;36.40;30.20;;;;;13.47;47.85;98143.09;6157605;28;97177;-58
2023/02/24 00:08:55;;;;;;;;;36.60;32.00;;;;;13.54;47.64;98140.16;6142816;28;96675;-58
2023/02/24 00:12:01;;;;;;;;;32.00;30.00;;;;;13.60;47.57;98129.13;6139852;28;97747;-58
2023/02/24 00:15:08;;;;;;;;;36.50;32.00;;;;;13.64;47.46;98137.53;6140729;28;96661;-58
2023/02/24 00:18:11;;;;;;;;;34.00;30.25;;;;;13.60;47.47;98122.88;6148472;28;96832;-58
2023/02/24 00:21:16;;;;;;;;;31.80;29.20;;;;;13.56;47.35;98124.47;6129136;28;98381;-58
2023/02/24 00:24:25;;;;;;;;;32.50;30.50;;;;;13.50;47.63;98118.22;6160885;28;97076;-58
2023/02/24 00:27:28;;;;;;;;;37.50;32.75;;;;;13.54;47.63;98121.22;6157878;28;96298;-58
2023/02/24 00:30:33;;;;;;;;;35.00;31.60;;;;;13.52;47.55;98117.97;6133888;28;97159;-57
2023/02/24 00:33:38;;;;;;;;;33.40;30.00;;;;;13.50;47.60;98118.22;6161657;28;96228;-58
2023/02/24 00:36:41;;;;;;;;;33.80;30.60;;;;;13.52;47.81;98116.06;6164290;28;96345;-58
2023/02/24 00:39:45;;;;;;;;;33.80;29.80;;;;;13.55;47.59;98112.00;6145495;28;97548;-59
2023/02/24 00:42:49;;;;;;;;;31.25;29.25;;;;;13.48;47.52;98090.59;6158644;28;96522;-58
2023/02/24 00:45:54;;;;;;;;;35.00;31.00;;;;;13.56;47.71;98100.94;6159758;28;96130;-58
2023/02/24 00:48:58;;;;;;;;;29.20;29.00;;;;;13.61;47.50;98092.84;6129963;28;96824;-58
2023/02/24 00:52:03;;;;;;;;;32.00;28.00;;;;;13.62;47.55;98091.78;6137403;28;96570;-57
2023/02/24 00:55:13;;;;;;;;;31.50;29.00;;;;;13.57;47.63;98083.63;6135839;28;96916;-58
2023/02/24 00:58:18;;;;;;;;;31.80;27.80;;;;;13.50;47.86;98080.31;6145633;28;96660;-58
2023/02/24 01:01:25;;;;;;;;;32.50;30.00;;;;;13.48;47.64;98071.63;6159240;28;96304;-58
2023/02/24 01:04:29;;;;;;;;;31.50;29.50;;;;;13.49;47.83;98069.75;6145817;28;96719;-57
2023/02/24 01:07:33;;;;;;;;;35.00;30.80;;;;;13.54;47.81;98076.00;6158981;28;96661;-56
2023/02/24 01:10:36;;;;;;;;;31.60;27.00;;;;;13.56;47.79;98073.84;6145492;28;96880;-56
2023/02/24 01:13:39;;;;;;;;;32.00;30.00;;;;;13.51;48.00;98067.59;6157723;28;96705;-56
2023/02/24 01:16:49;;;;;;;;;34.00;28.00;;;;;13.48;47.99;98060.00;6144825;28;96462;-56
2023/02/24 01:19:53;;;;;;;;;38.40;32.40;;;;;13.50;47.79;98064.06;6130256;28;97009;-56
2023/02/24 01:22:57;;;;;;;;;33.00;29.00;;;;;13.44;48.08;98062.38;6138037;28;96511;-56
2023/02/24 01:26:02;;;;;;;;;32.50;28.00;;;;;13.42;48.08;98061.84;6155221;28;96964;-56
2023/02/24 01:29:08;;;;;;;;;36.60;32.00;;;;;13.39;48.23;98062.34;6136599;28;99164;-56
2023/02/24 01:32:17;;;;;;;;;35.00;32.00;;;;;13.36;48.22;98057.47;6130797;28;97556;-55
2023/02/24 01:35:21;;;;;;;;;32.80;29.00;;;;;13.40;48.09;98045.03;6141302;28;96576;-55
2023/02/24 01:38:24;;;;;;;;;29.80;26.40;;;;;13.37;48.26;98043.66;6135576;28;96283;-56
2023/02/24 01:41:29;;;;;;;;;30.50;29.25;;;;;13.39;48.21;98035.28;6159842;28;96183;-56
2023/02/24 01:45:05;;;;;;;;;30.60;28.60;;;;;13.44;48.22;98035.31;6150033;28;96345;-57
2023/02/24 01:48:12;;;;;;;;;31.40;27.40;;;;;13.42;48.21;98038.28;6124941;28;96544;-55
2023/02/24 01:51:15;;;;;;;;;33.75;30.00;;;;;13.34;48.10;98010.91;6162335;28;96336;-56
2023/02/24 01:54:23;;;;;;;;;30.00;26.60;;;;;13.33;48.16;98012.78;6130645;28;97150;-55
2023/02/24 01:57:31;;;;;;;;;34.60;29.00;;;;;13.44;48.24;98027.19;6142401;28;96255;-56
2023/02/24 02:00:43;;;;;;;;;35.00;31.00;;;;;13.48;48.21;98022.09;6121560;28;96307;-56
2023/02/24 02:03:48;;;;;;;;;36.00;32.00;;;;;13.41;48.39;98020.41;6162181;28;96259;-56
2023/02/24 02:06:52;;;;;;;;;33.00;31.00;;;;;13.41;48.33;98015.00;6139205;28;96396;-57
2023/02/24 02:09:59;;;;;;;;;34.20;30.60;;;;;13.37;48.34;98011.19;6136037;28;96849;-55
2023/02/24 02:13:03;;;;;;;;;35.50;31.75;;;;;13.39;48.39;98006.31;6153835;28;96390;-56
2023/02/24 02:16:41;;;;;;;;;32.75;30.00;;;;;13.27;48.48;97991.34;6157175;28;96311;-56
2023/02/24 02:20:16;;;;;;;;;31.00;28.00;;;;;13.41;48.43;98012.28;6139923;28;96728;-56
2023/02/24 02:23:36;;;;;;;;;27.00;24.20;;;;;13.44;48.33;98002.81;6159781;28;96505;-56
2023/02/24 02:27:21;;;;;;;;;28.50;26.50;;;;;13.49;48.37;98004.78;6161775;28;96400;-56
2023/02/24 02:30:49;;;;;;;;;31.50;29.00;;;;;13.56;48.21;97995.31;6124370;28;96273;-55
2023/02/24 02:34:15;;;;;;;;;29.60;28.60;;;;;13.60;48.09;97999.13;6102083;28;96546;-57
2023/02/24 02:37:26;;;;;;;;;25.80;24.40;;;;;13.63;47.85;97985.09;6154057;28;96478;-56
2023/02/24 02:40:40;;;;;;;;;26.80;23.20;;;;;13.62;48.03;97986.16;6107130;28;97628;-55
2023/02/24 02:43:51;;;;;;;;;26.00;24.00;;;;;13.73;47.64;97982.41;6124609;28;96727;-55
2023/02/24 02:47:01;;;;;;;;;25.20;23.60;;;;;13.77;47.33;97978.09;6161207;28;96222;-56
2023/02/24 02:50:17;;;;;;;;;27.00;22.00;;;;;13.76;47.29;97967.53;6148798;28;96303;-56
2023/02/24 02:53:28;;;;;;;;;22.00;20.80;;;;;13.86;47.19;97984.66;6142631;28;96390;-56
2023/02/24 02:56:37;;;;;;;;;23.00;20.50;;;;;13.94;47.19;97982.50;6147913;28;96996;-56
2023/02/24 02:59:48;;;;;;;;;24.00;21.60;;;;;13.95;47.13;97978.69;6137428;28;98290;-56
2023/02/24 03:02:55;;;;;;;;;22.00;20.80;;;;;13.86;47.26;97978.41;6152694;28;96656;-56
2023/02/24 03:06:03;;;;;;;;;20.00;18.60;;;;;13.77;47.41;97982.69;6139893;28;96955;-56
2023/02/24 03:09:14;;;;;;;;;22.40;20.40;;;;;13.75;47.57;97971.31;6123781;28;98335;-56
2023/02/24 03:12:22;;;;;;;;;21.80;19.00;;;;;13.77;47.66;97980.00;6163976;28;96877;-56
2023/02/24 03:15:30;;;;;;;;;18.75;17.75;;;;;13.75;47.85;97974.00;6157573;28;96594;-56
2023/02/24 03:18:39;;;;;;;;;22.00;20.00;;;;;13.80;48.26;97971.31;6153119;28;96423;-55
2023/02/24 03:21:48;;;;;;;;;21.80;19.20;;;;;13.62;48.56;97967.19;6149752;28;96799;-56
2023/02/24 03:24:54;;;;;;;;;17.00;16.40;;;;;13.58;49.25;97973.41;6162895;28;96294;-57
2023/02/24 03:28:15;;;;;;;;;23.00;21.00;;;;;13.62;49.39;97969.09;6132665;28;96371;-57
2023/02/24 03:31:27;;;;;;;;;21.00;19.00;;;;;13.55;49.79;97966.59;6130903;28;97325;-56
2023/02/24 03:34:42;;;;;;;;;20.60;17.60;;;;;13.47;50.56;97963.59;6134657;28;97133;-56
2023/02/24 03:37:48;;;;;;;;;20.40;19.60;;;;;13.43;51.29;97958.72;6133953;28;96846;-56
2023/02/24 03:40:52;;;;;;;;;19.33;17.00;;;;;13.37;52.00;97961.63;6130910;28;97924;-57
2023/02/24 03:44:02;;;;;;;;;20.00;18.75;;;;;13.32;52.53;97961.59;6141958;28;96272;-56
2023/02/24 03:47:08;;;;;;;;;20.50;19.50;;;;;13.12;53.64;97956.88;6157282;28;96348;-57
2023/02/24 03:50:15;;;;;;;;;20.50;19.25;;;;;13.20;53.90;97955.56;6140565;28;97550;-56
2023/02/24 03:53:34;;;;;;;;;22.75;20.75;;;;;13.16;54.28;97944.44;6137963;28;96243;-56
2023/02/24 03:56:46;;;;;;;;;21.25;19.75;;;;;13.09;54.64;97945.75;6148490;28;96283;-56
2023/02/24 04:00:24;;;;;;;;;24.00;20.40;;;;;13.11;55.22;97932.75;6120075;28;96657;-62
2023/02/24 04:03:38;;;;;;;;;20.20;18.80;;;;;13.17;54.89;97931.75;6173223;28;96477;-62
2023/02/24 04:07:00;;;;;;;;;18.75;17.75;;;;;13.08;55.65;97922.44;6170216;28;96594;-62
2023/02/24 04:10:11;;;;;;;;;20.40;17.40;;;;;13.02;55.63;97925.13;6155928;28;96306;-63
2023/02/24 04:13:30;;;;;;;;;21.50;20.00;;;;;12.97;55.59;97916.97;6140274;28;96497;-63
2023/02/24 04:16:38;;;;;;;;;19.00;17.00;;;;;13.01;56.37;97918.06;6163003;28;97173;-63
2023/02/24 04:19:46;;;;;;;;;23.50;21.25;;;;;12.91;56.84;97900.97;6160001;28;96505;-62
2023/02/24 04:22:58;;;;;;;;;20.80;19.20;;;;;12.94;56.61;97905.88;6151009;28;96715;-62
2023/02/24 04:26:03;;;;;;;;;20.80;18.80;;;;;12.93;56.81;97902.34;6140705;28;98325;-62
2023/02/24 04:29:08;;;;;;;;;24.00;22.00;;;;;12.86;57.35;97887.41;6144580;28;98902;-63
2023/02/24 04:32:14;;;;;;;;;23.00;19.75;;;;;12.89;57.51;97893.13;6166494;28;96923;-63
2023/02/24 04:35:21;;;;;;;;;23.80;21.40;;;;;12.80;57.73;97873.06;6164713;28;96245;-62
2023/02/24 04:38:26;;;;;;;;;20.60;19.20;;;;;12.95;57.70;97891.28;6154899;28;96313;-63
2023/02/24 04:41:30;;;;;;;;;21.60;18.80;;;;;12.96;58.11;97893.69;6145048;28;98577;-63
2023/02/24 04:44:34;;;;;;;;;21.60;20.20;;;;;12.92;57.99;97879.06;6169872;28;96656;-63
2023/02/24 04:47:41;;;;;;;;;26.40;24.00;;;;;12.92;58.15;97883.66;6162889;28;96852;-62
2023/02/24 04:50:45;;;;;;;;;23.00;21.00;;;;;12.90;58.23;97873.09;6158300;28;96728;-63
2023/02/24 04:53:50;;;;;;;;;19.40;18.20;;;;;12.90;58.41;97877.72;6174662;28;96488;-63
2023/02/24 04:56:59;;;;;;;;;24.00;22.00;;;;;12.85;58.49;97872.28;6174834;28;96363;-62
2023/02/24 05:00:04;;;;;;;;;26.40;22.00;;;;;12.87;58.59;97865.50;6184151;28;96226;-63
2023/02/24 05:03:10;;;;;;;;;24.40;22.00;;;;;12.73;59.17;97845.41;6169685;28;96662;-63
2023/02/24 05:06:15;;;;;;;;;25.40;22.00;;;;;12.81;58.86;97861.13;6165063;28;96321;-63
2023/02/24 05:09:19;;;;;;;;;25.40;24.40;;;;;12.80;59.16;97856.81;6144159;28;96282;-63
2023/02/24 05:12:23;;;;;;;;;23.00;23.00;;;;;12.80;59.21;97850.59;6145226;28;97251;-62
2023/02/24 05:15:31;;;;;;;;;22.00;20.33;;;;;12.78;59.34;97850.03;6154915;28;96378;-62
2023/02/24 05:18:35;;;;;;;;;24.00;21.00;;;;;12.69;59.78;97849.72;6166019;28;96505;-62
2023/02/24 05:21:38;;;;;;;;;25.40;23.20;;;;;12.68;59.58;97848.06;6161792;28;97007;-62
2023/02/24 05:24:42;;;;;;;;;22.40;19.40;;;;;12.68;59.82;97842.66;6144090;28;96519;-63
2023/02/24 05:27:47;;;;;;;;;23.40;22.00;;;;;12.60;59.88;97826.94;6169698;28;96134;-63
2023/02/24 05:30:51;;;;;;;;;22.00;21.80;;;;;12.67;59.88;97837.50;6173087;28;96845;-62
2023/02/24 05:33:57;;;;;;;;;24.00;22.00;;;;;12.70;59.82;97845.94;6139595;28;97151;-62
2023/02/24 05:37:08;;;;;;;;;21.40;20.00;;;;;12.71;59.83;97844.03;6155011;28;96985;-62
2023/02/24 05:40:13;;;;;;;;;24.00;22.50;;;;;12.74;59.77;97843.53;6172671;28;96365;-62
2023/02/24 05:43:18;;;;;;;;;22.00;20.00;;;;;12.73;59.57;97834.59;6150995;28;96271;-62
2023/02/24 05:46:27;;;;;;;;;20.00;18.00;;;;;12.71;59.38;97835.91;6156747;28;96727;-61
2023/02/24 05:49:33;;;;;;;;;21.00;19.00;;;;;12.70;59.80;97839.72;6152621;28;96746;-61
2023/02/24 05:52:36;;;;;;;;;21.40;20.00;;;;;12.73;59.82;97836.47;6128121;28;96629;-60
2023/02/24 05:55:40;;;;;;;;;21.60;20.00;;;;;12.73;59.92;97831.88;6158198;28;98717;-62
2023/02/24 05:58:45;;;;;;;;;20.25;18.00;;;;;12.69;59.83;97827.25;6176440;28;97044;-60
2023/02/24 06:01:52;;;;;;;;;19.40;17.40;;;;;12.66;59.88;97820.47;6171685;28;96422;-58
2023/02/24 06:04:55;;;;;;;;;20.00;17.75;;;;;12.67;59.68;97822.09;6177446;28;98538;-61
2023/02/24 06:08:05;;;;;;;;;21.50;19.75;;;;;12.63;60.17;97815.59;6178556;28;96582;-62
2023/02/24 06:11:10;;;;;;;;;17.20;17.00;;;;;12.56;60.13;97801.47;6160573;28;97182;-60
2023/02/24 06:14:16;;;;;;;;;19.00;15.00;;;;;12.67;59.97;97813.19;6170664;28;96349;-60
2023/02/24 06:17:20;;;;;;;;;18.50;17.25;;;;;12.69;60.04;97805.63;6174159;28;96270;-61
2023/02/24 06:20:25;;;;;;;;;20.00;17.20;;;;;12.72;60.21;97808.63;6177517;28;96850;-62
2023/02/24 06:23:29;;;;;;;;;21.00;19.00;;;;;12.72;60.08;97805.91;6174186;28;97468;-59
2023/02/24 06:26:35;;;;;;;;;19.60;17.80;;;;;12.75;60.07;97801.88;6174099;28;96320;-63
2023/02/24 06:29:40;;;;;;;;;19.00;18.00;;;;;12.76;60.06;97795.38;6157628;28;98719;-62
2023/02/24 06:32:44;;;;;;;;;20.00;17.75;;;;;12.79;59.70;97794.88;6161954;28;96711;-63
2023/02/24 06:35:48;;;;;;;;;21.40;18.40;;;;;12.88;59.46;97787.88;6174055;28;96667;-62
2023/02/24 06:38:51;;;;;;;;;18.00;16.80;;;;;12.92;59.51;97795.22;6171454;28;96877;-62
2023/02/24 06:41:56;;;;;;;;;17.50;17.50;;;;;12.95;58.95;97793.88;6151021;28;96497;-62
2023/02/24 06:45:00;;;;;;;;;13.20;12.60;;;;;12.96;59.07;97788.19;6159622;28;96236;-63
2023/02/24 06:48:04;;;;;;;;;13.00;13.00;;;;;12.98;58.59;97787.94;6158957;28;96395;-63
2023/02/24 06:51:09;;;;;;;;;15.50;12.75;;;;;12.95;58.58;97789.25;6168391;28;97058;-62
2023/02/24 06:54:14;;;;;;;;;17.20;12.40;;;;;12.89;58.74;97778.69;6175099;28;97108;-63
2023/02/24 06:57:19;;;;;;;;;16.00;14.00;;;;;12.90;58.48;97774.91;6171359;28;98460;-62
2023/02/24 07:00:35;;;;;;;;;16.40;15.00;;;;;12.90;58.27;97778.41;6168363;28;96761;-63
2023/02/24 07:03:39;;;;;;;;;13.00;11.80;;;;;12.91;58.16;97766.53;6153581;28;96386;-62
2023/02/24 07:06:46;;;;;;;;;15.00;14.00;;;;;12.89;57.91;97766.00;6151125;28;96430;-63
2023/02/24 07:09:50;;;;;;;;;13.75;12.00;;;;;12.98;57.30;97766.28;6177080;28;96528;-62
2023/02/24 07:12:54;;;;;;;;;13.60;12.00;;;;;12.92;57.45;97746.50;6152500;28;96642;-62
2023/02/24 07:16:05;;;;;;;;;15.00;14.00;;;;;12.86;57.75;97762.97;6156040;28;96412;-63
2023/02/24 07:19:12;;;;;;;;;14.33;14.00;;;;;12.95;57.60;97756.78;6159434;28;96852;-62
2023/02/24 07:22:16;;;;;;;;;14.40;13.40;;;;;12.99;57.55;97760.63;6134431;28;96642;-63
2023/02/24 07:25:32;;;;;;;;;13.00;12.00;;;;;12.96;57.67;97752.22;6151175;28;96623;-59
2023/02/24 07:28:35;;;;;;;;;17.75;14.75;;;;;13.05;57.80;97744.41;6160715;28;97842;-63
2023/02/24 07:31:41;;;;;;;;;14.60;13.60;;;;;13.07;57.87;97742.25;6173539;28;96525;-60
2023/02/24 07:34:45;;;;;;;;;14.00;13.80;;;;;13.10;57.75;97744.41;6170893;28;97366;-63
2023/02/24 07:37:48;;;;;;;;;15.33;14.00;;;;;13.16;56.94;97735.25;6180726;28;96465;-62
2023/02/24 07:40:57;;;;;;;;;17.00;15.00;;;;;13.21;57.00;97727.97;6153002;28;96898;-61
2023/02/24 07:44:02;;;;;;;;;14.00;14.00;;;;;13.21;57.12;97732.56;6185034;28;96217;-62
2023/02/24 07:47:07;;;;;;;;;13.60;13.00;;;;;13.23;56.66;97735.84;6187212;28;97121;-63
2023/02/24 07:50:17;;;;;;;;;15.60;13.60;;;;;13.41;56.40;97729.91;6149546;28;96560;-62
2023/02/24 07:53:21;;;;;;;;;14.80;12.80;;;;;13.47;56.20;97720.72;6173831;28;96463;-61
2023/02/24 07:56:26;;;;;;;;;13.00;13.00;;;;;13.57;55.48;97712.63;6176637;28;96838;-61
2023/02/24 07:59:32;;;;;;;;;14.40;12.40;;;;;13.67;55.23;97712.63;6177086;28;97368;-61
2023/02/24 08:02:37;;;;;;;;;13.60;13.00;;;;;13.66;55.44;97718.31;6177719;28;96223;-60
2023/02/24 08:05:42;;;;;;;;;14.00;13.60;;;;;13.75;55.02;97714.78;6172857;28;96824;-62
2023/02/24 08:08:57;;;;;;;;;15.00;13.50;;;;;13.84;55.06;97718.59;6167717;28;98392;-62
2023/02/24 08:12:02;;;;;;;;;16.40;16.00;;;;;13.84;55.01;97715.88;6166926;28;98399;-62
2023/02/24 08:15:15;;;;;;;;;16.60;16.60;;;;;13.85;55.09;97711.28;6163694;28;97503;-59
2023/02/24 08:18:21;;;;;;;;;15.60;13.60;;;;;13.95;54.82;97707.75;6165947;28;98435;-63
2023/02/24 08:21:26;;;;;;;;;16.40;16.00;;;;;14.09;54.46;97703.41;6183774;28;96167;-63
2023/02/24 08:24:29;;;;;;;;;14.50;13.00;;;;;14.39;53.22;97708.00;6183224;28;96248;-63
2023/02/24 08:27:37;;;;;;;;;16.00;13.00;;;;;14.95;51.79;97703.22;6181526;28;98608;-62
2023/02/24 08:30:44;;;;;;;;;16.40;14.00;;;;;16.02;49.58;97696.81;6166987;28;96422;-61
2023/02/24 08:33:55;;;;;;;;;14.00;13.00;;;;;16.68;47.18;97698.06;6176574;28;96358;-63
2023/02/24 08:36:59;;;;;;;;;15.00;12.00;;;;;16.55;46.62;97691.38;6169142;28;96480;-63
2023/02/24 08:40:04;;;;;;;;;10.00;9.60;;;;;16.14;46.81;97682.81;6182198;28;96906;-63
2023/02/24 08:43:16;;;;;;;;;10.00;9.00;;;;;16.03;46.78;97684.00;6184212;28;96255;-61
2023/02/24 08:46:24;;;;;;;;;10.00;8.40;;;;;16.04;46.95;97677.47;6178428;28;97265;-63
2023/02/24 08:49:32;;;;;;;;;10.00;10.00;;;;;15.65;46.77;97688.41;6182831;28;98418;-63
2023/02/24 08:52:35;;;;;;;;;7.00;7.00;;;;;15.48;47.06;97675.19;6180525;28;96903;-63
2023/02/24 08:55:39;;;;;;;;;9.60;9.00;;;;;15.21;47.86;97682.97;6182031;28;96292;-60
2023/02/24 08:58:46;;;;;;;;;10.25;9.25;;;;;15.15;48.01;97676.75;6185564;28;96422;-63
2023/02/24 09:02:13;;;;;;;;;10.00;9.00;;;;;15.07;48.57;97680.06;6174150;28;96338;-62
2023/02/24 09:05:16;;;;;;;;;12.00;10.40;;;;;15.01;48.26;97672.22;6171752;28;98387;-63
2023/02/24 09:08:22;;;;;;;;;10.00;10.00;;;;;14.97;48.48;97658.41;6189226;28;96241;-59
2023/02/24 09:11:26;;;;;;;;;11.60;9.60;;;;;14.97;47.98;97665.72;6183357;28;97594;-63
2023/02/24 09:14:35;;;;;;;;;10.20;9.80;;;;;14.97;47.80;97663.00;6178434;28;96167;-63
2023/02/24 09:17:48;;;;;;;;;9.20;8.60;;;;;15.02;48.16;97671.13;6181616;28;96231;-61
2023/02/24 09:21:14;;;;;;;;;12.00;11.00;;;;;15.14;48.36;97655.34;6165325;28;96661;-62
2023/02/24 09:24:25;;;;;;;;;10.00;9.60;;;;;15.12;48.07;97650.19;6164547;28;96832;-61
2023/02/24 09:27:29;;;;;;;;;13.00;12.00;;;;;15.21;47.89;97653.09;6183999;28;96447;-61
2023/02/24 09:30:49;;;;;;;;;11.00;9.60;;;;;15.09;48.13;97644.50;6177873;28;98428;-63
2023/02/24 09:33:53;;;;;;;;;11.20;11.00;;;;;15.10;48.00;97641.50;6189290;28;96665;-63
2023/02/24 09:37:01;;;;;;;;;11.60;10.60;;;;;14.96;48.08;97634.25;6159977;28;98466;-62
2023/02/24 09:43:29;;;;;;;;;10.67;10.33;;;;;14.95;48.43;97640.78;6162539;28;97276;-62
2023/02/24 09:46:39;;;;;;;;;13.00;11.60;;;;;14.99;48.16;97639.13;6179937;28;96691;-61
2023/02/24 09:49:49;;;;;;;;;11.40;10.20;;;;;14.88;48.06;97630.22;6178791;28;96419;-61
2023/02/24 09:53:03;;;;;;;;;13.80;12.00;;;;;14.82;47.95;97623.19;6180977;28;96316;-59
2023/02/24 09:56:21;;;;;;;;;15.00;14.00;;;;;14.73;48.18;97617.56;6174764;28;96359;-63
2023/02/24 09:59:33;;;;;;;;;13.40;13.00;;;;;14.89;48.12;97615.59;6166747;28;96774;-61
2023/02/24 10:02:43;;;;;;;;;15.00;13.00;;;;;15.02;47.72;97612.22;6166522;28;96301;-60
2023/02/24 10:05:57;;;;;;;;;16.00;13.20;;;;;15.10;47.67;97606.19;6169548;28;96355;-61
2023/02/24 10:09:13;;;;;;;;;14.60;13.60;;;;;15.23;47.38;97614.81;6167934;28;100267;-59
2023/02/24 10:12:23;;;;;;;;;15.67;13.00;;;;;15.23;47.29;97609.38;6182365;28;96348;-63
2023/02/24 10:15:49;;;;;;;;;11.40;11.00;;;;;15.30;47.07;97610.69;6169229;28;96459;-62
2023/02/24 10:19:13;;;;;;;;;13.80;13.60;;;;;15.41;46.92;97617.66;6161728;28;96374;-60
2023/02/24 10:22:27;;;;;;;;;13.40;13.20;;;;;15.55;46.93;97602.38;6164108;28;96656;-62
2023/02/24 10:25:52;;;;;;;;;17.00;14.60;;;;;15.55;46.99;97599.66;6175380;28;96452;-60
2023/02/24 10:29:08;;;;;;;;;18.00;15.00;;;;;15.72;46.95;97601.97;6148906;28;96821;-56
2023/02/24 10:32:32;;;;;;;;;15.20;14.80;;;;;15.97;46.55;97592.75;6159728;28;96332;-57
2023/02/24 10:35:37;;;;;;;;;14.80;14.60;;;;;16.29;45.94;97583.94;6148100;28;97107;-56
2023/02/24 10:38:44;;;;;;;;;19.00;16.40;;;;;16.40;45.64;97585.47;6132750;28;96825;-56
2023/02/24 10:41:55;;;;;;;;;17.50;16.00;;;;;16.63;45.83;97571.03;6156962;28;96267;-55
2023/02/24 10:45:16;;;;;;;;;17.33;16.33;;;;;16.67;45.17;97568.53;6153560;28;96308;-56
2023/02/24 10:48:24;;;;;;;;;16.00;15.00;;;;;17.13;44.30;97550.44;6147305;28;96639;-55
2023/02/24 10:51:51;;;;;;;;;17.20;15.20;;;;;17.59;43.42;97544.28;6146636;28;96238;-55
2023/02/24 10:55:04;;;;;;;;;19.00;15.00;;;;;17.70;43.35;97541.06;6162028;28;96418;-57
2023/02/24 10:58:26;;;;;;;;;16.00;15.00;;;;;17.78;43.17;97530.59;6154267;28;96273;-56
2023/02/24 11:01:53;;;;;;;;;16.40;14.60;;;;;17.81;43.06;97532.69;6136971;28;98394;-56
2023/02/24 11:05:15;;;;;;;;;16.00;15.60;;;;;17.55;42.60;97526.84;6161122;28;96477;-56
2023/02/24 11:08:38;;;;;;;;;16.00;14.00;;;;;17.38;42.99;97526.63;6155292;28;97756;-57
2023/02/24 11:18:27;;;;;;;;;19.00;17.00;;;;;17.95;42.50;97498.06;6147153;28;97270;-56
2023/02/24 11:21:30;;;;;;;;;17.40;15.00;;;;;18.65;40.67;97495.81;6136488;28;98634;-56
2023/02/24 11:24:38;;;;;;;;;17.00;16.00;;;;;19.53;39.11;97477.03;6148242;28;96677;-56
2023/02/24 11:27:42;;;;;;;;;15.20;14.40;;;;;20.42;37.68;97472.06;6149821;28;96361;-58
2023/02/24 11:30:56;;;;;;;;;11.40;11.00;;;;;21.44;35.50;97470.44;6133612;28;96986;-57
2023/02/24 11:34:06;;;;;;;;;13.40;13.40;;;;;21.71;34.75;97468.41;6145738;28;96344;-57
2023/02/24 11:37:21;;;;;;;;;16.80;15.00;;;;;21.50;34.88;97463.63;6165120;28;96452;-57
2023/02/24 11:40:28;;;;;;;;;16.00;15.00;;;;;21.35;35.71;97445.00;6119610;28;98413;-56
2023/02/24 11:43:36;;;;;;;;;15.60;14.00;;;;;21.11;35.81;97458.38;6160550;28;97631;-56
2023/02/24 11:46:45;;;;;;;;;15.60;14.60;;;;;20.74;35.92;97446.16;6167089;28;96256;-56
2023/02/24 11:49:53;;;;;;;;;15.80;14.80;;;;;20.70;36.36;97448.72;6132373;28;96705;-56
2023/02/24 11:53:00;;;;;;;;;20.25;17.00;;;;;20.64;37.00;97433.59;6153742;28;96600;-57
2023/02/24 11:56:09;;;;;;;;;16.25;14.75;;;;;20.46;36.78;97425.69;6148279;28;96674;-56
2023/02/24 11:59:18;;;;;;;;;16.20;15.00;;;;;21.41;36.51;97423.66;6150197;28;96294;-57
2023/02/24 12:02:34;;;;;;;;;17.00;15.40;;;;;21.98;34.55;97413.94;6139296;28;96478;-56
2023/02/24 12:05:41;;;;;;;;;18.00;17.25;;;;;21.90;34.58;97417.50;6147665;28;99094;-56
2023/02/24 12:08:49;;;;;;;;;17.50;17.00;;;;;21.79;35.17;97412.72;6135609;28;96681;-56
2023/02/24 12:11:56;;;;;;;;;21.50;18.00;;;;;21.36;35.31;97416.41;6145637;28;96514;-56
2023/02/24 12:15:04;;;;;;;;;19.00;17.80;;;;;20.98;36.44;97418.25;6156443;28;96890;-57
2023/02/24 12:18:18;;;;;;;;;18.00;17.40;;;;;20.39;36.74;97417.13;6147971;28;96299;-57
2023/02/24 12:21:29;;;;;;;;;18.40;17.00;;;;;19.86;37.58;97408.00;6147700;28;96627;-56
2023/02/24 12:24:35;;;;;;;;;17.50;16.00;;;;;19.42;38.24;97405.38;6166275;28;97608;-56
2023/02/24 12:27:53;;;;;;;;;15.20;15.20;;;;;19.13;39.01;97384.03;6144045;28;96767;-56
2023/02/24 12:31:07;;;;;;;;;19.00;15.00;;;;;18.81;39.26;97393.31;6156024;28;96365;-56
2023/02/24 12:34:23;;;;;;;;;18.00;16.00;;;;;18.67;39.57;97394.50;6134496;28;96998;-56
2023/02/24 12:37:47;;;;;;;;;17.00;16.00;;;;;18.45;39.40;97387.06;6162980;28;96350;-56
2023/02/24 12:40:59;;;;;;;;;16.60;15.00;;;;;18.26;39.71;97381.78;6154968;28;96410;-56
2023/02/24 12:44:16;;;;;;;;;13.50;12.00;;;;;17.96;40.09;97391.44;6144528;28;96338;-56
2023/02/24 12:47:26;;;;;;;;;15.40;15.40;;;;;17.80;40.65;97383.88;6157407;28;96380;-56
2023/02/24 12:50:45;;;;;;;;;13.80;12.80;;;;;17.60;40.79;97371.47;6152523;28;96489;-56
2023/02/24 12:53:57;;;;;;;;;14.80;14.80;;;;;17.42;41.20;97356.81;6150496;28;96258;-56
2023/02/24 12:57:11;;;;;;;;;11.75;10.75;;;;;17.13;41.42;97369.91;6132436;28;96477;-56
2023/02/24 13:00:21;;;;;;;;;18.00;16.00;;;;;17.01;41.80;97361.41;6147779;28;96635;-56
2023/02/24 13:03:39;;;;;;;;;18.00;16.80;;;;;16.82;42.31;97359.56;6147273;28;97585;-56
2023/02/24 13:06:58;;;;;;;;;18.00;17.00;;;;;16.48;42.97;97365.28;6135261;28;98409;-57
2023/02/24 13:10:23;;;;;;;;;16.00;15.00;;;;;16.51;43.29;97363.09;6130619;28;98413;-55
2023/02/24 13:13:34;;;;;;;;;17.60;16.20;;;;;16.41;43.75;97339.56;6131037;28;96690;-56
2023/02/24 13:16:37;;;;;;;;;17.00;14.60;;;;;16.54;44.56;97346.97;6164760;28;97763;-56
2023/02/24 13:19:42;;;;;;;;;15.00;14.60;;;;;16.69;44.21;97349.47;6142378;28;96741;-56
2023/02/24 13:22:47;;;;;;;;;12.00;12.00;;;;;16.76;43.51;97338.97;6135304;28;96887;-56
2023/02/24 13:25:52;;;;;;;;;16.20;15.00;;;;;16.86;43.33;97351.59;6148099;28;96413;-56
2023/02/24 13:29:02;;;;;;;;;17.00;15.20;;;;;16.86;43.57;97338.81;6150259;28;96506;-57
2023/02/24 13:32:05;;;;;;;;;16.00;15.00;;;;;17.48;42.31;97330.28;6156559;28;97852;-55
2023/02/24 13:35:30;;;;;;;;;17.00;14.00;;;;;18.03;40.90;97331.81;6154196;28;96932;-56
2023/02/24 13:38:38;;;;;;;;;15.60;14.60;;;;;18.23;40.68;97327.03;6142330;28;96857;-56
2023/02/24 13:41:42;;;;;;;;;19.00;16.00;;;;;18.14;40.19;97332.41;6137275;28;98478;-56
2023/02/24 13:44:49;;;;;;;;;17.50;15.00;;;;;17.92;40.31;97319.56;6135324;28;97101;-56
2023/02/24 13:48:19;;;;;;;;;15.00;13.60;;;;;17.67;40.54;97310.03;6140740;28;96348;-56
2023/02/24 13:51:45;;;;;;;;;14.00;12.00;;;;;17.58;40.64;97306.38;6138208;28;96268;-56
2023/02/24 13:55:09;;;;;;;;;15.60;14.00;;;;;17.53;41.07;97305.66;6152971;28;96368;-56
2023/02/24 13:58:37;;;;;;;;;12.00;11.80;;;;;17.33;41.41;97304.97;6155344;28;96934;-57
2023/02/24 14:01:50;;;;;;;;;16.00;15.00;;;;;17.20;41.30;97313.16;6155800;28;96247;-58
2023/02/24 14:04:57;;;;;;;;;14.80;12.20;;;;;16.92;41.73;97298.69;6151090;28;97209;-58
2023/02/24 14:08:03;;;;;;;;;17.00;15.00;;;;;16.95;41.86;97297.31;6163978;28;96235;-55
2023/02/24 14:11:12;;;;;;;;;15.00;14.00;;;;;16.70;41.94;97293.94;6130182;28;96689;-56
2023/02/24 14:14:18;;;;;;;;;17.00;14.00;;;;;16.62;42.40;97296.53;6148607;28;96493;-56
2023/02/24 14:17:27;;;;;;;;;17.40;13.40;;;;;16.59;42.06;97291.69;6163309;28;96290;-56
2023/02/24 14:20:33;;;;;;;;;15.75;13.75;;;;;16.51;42.20;97295.06;6153097;28;96206;-56
2023/02/24 14:23:37;;;;;;;;;16.00;14.75;;;;;16.48;42.48;97282.88;6157534;28;97220;-55
2023/02/24 14:26:46;;;;;;;;;16.20;13.80;;;;;16.33;42.43;97289.38;6145146;28;98444;-57
2023/02/24 14:29:52;;;;;;;;;16.40;14.00;;;;;16.30;42.57;97286.44;6157859;28;96600;-56
2023/02/24 14:32:55;;;;;;;;;16.75;14.75;;;;;16.29;42.57;97284.81;6157572;28;96741;-57
2023/02/24 14:36:00;;;;;;;;;12.20;12.20;;;;;16.28;42.83;97264.16;6159414;28;96737;-56
2023/02/24 14:39:13;;;;;;;;;14.60;13.60;;;;;16.25;42.88;97240.31;6159535;28;96548;-57
2023/02/24 14:42:19;;;;;;;;;15.00;14.40;;;;;16.33;42.91;97245.06;6126873;28;96636;-56